Map

Track Data

SID SEASON NUMBER BASIN SUBBASIN NAME ISO_TIME NATURE LAT LON WMO_WIND WMO_PRES WMO_AGENCY TRACK_TYPE DIST2LAND LANDFALL IFLAG USA_AGENCY USA_ATCF_ID USA_LAT USA_LON USA_RECORD USA_STATUS USA_WIND USA_PRES USA_SSHS USA_R34_NE USA_R34_SE USA_R34_SW USA_R34_NW USA_R50_NE USA_R50_SE USA_R50_SW USA_R50_NW USA_R64_NE USA_R64_SE USA_R64_SW USA_R64_NW USA_POCI USA_ROCI USA_RMW USA_EYE TOKYO_LAT TOKYO_LON TOKYO_GRADE TOKYO_WIND TOKYO_PRES TOKYO_R50_DIR TOKYO_R50_LONG TOKYO_R50_SHORT TOKYO_R30_DIR TOKYO_R30_LONG TOKYO_R30_SHORT TOKYO_LAND CMA_LAT CMA_LON CMA_CAT CMA_WIND CMA_PRES HKO_LAT HKO_LON HKO_CAT HKO_WIND HKO_PRES NEWDELHI_LAT NEWDELHI_LON NEWDELHI_GRADE NEWDELHI_WIND NEWDELHI_PRES NEWDELHI_CI NEWDELHI_DP NEWDELHI_POCI REUNION_LAT REUNION_LON REUNION_TYPE REUNION_WIND REUNION_PRES REUNION_TNUM REUNION_CI REUNION_RMW REUNION_R34_NE REUNION_R34_SE REUNION_R34_SW REUNION_R34_NW REUNION_R50_NE REUNION_R50_SE REUNION_R50_SW REUNION_R50_NW REUNION_R64_NE REUNION_R64_SE REUNION_R64_SW REUNION_R64_NW BOM_LAT BOM_LON BOM_TYPE BOM_WIND BOM_PRES BOM_TNUM BOM_CI BOM_RMW BOM_R34_NE BOM_R34_SE BOM_R34_SW BOM_R34_NW BOM_R50_NE BOM_R50_SE BOM_R50_SW BOM_R50_NW BOM_R64_NE BOM_R64_SE BOM_R64_SW BOM_R64_NW BOM_ROCI BOM_POCI BOM_EYE BOM_POS_METHOD BOM_PRES_METHOD NADI_LAT NADI_LON NADI_CAT NADI_WIND NADI_PRES WELLINGTON_LAT WELLINGTON_LON WELLINGTON_WIND WELLINGTON_PRES DS824_LAT DS824_LON DS824_STAGE DS824_WIND DS824_PRES TD9636_LAT TD9636_LON TD9636_STAGE TD9636_WIND TD9636_PRES TD9635_LAT TD9635_LON TD9635_WIND TD9635_PRES TD9635_ROCI NEUMANN_LAT NEUMANN_LON NEUMANN_CLASS NEUMANN_WIND NEUMANN_PRES MLC_LAT MLC_LON MLC_CLASS MLC_WIND MLC_PRES USA_GUST BOM_GUST BOM_GUST_PER REUNION_GUST REUNION_GUST_PER USA_SEAHGT USA_SEARAD_NE USA_SEARAD_SE USA_SEARAD_SW USA_SEARAD_NW STORM_SPEED STORM_DIR
1943229N24144 1943 54 WP MM NOT_NAMED 1943-08-17 09:00:00 NR 23.5000 144.400 main 1344 1260 __________O___ -1 23.5000 144.400 4 15 338
1943229N24144 1943 54 WP MM NOT_NAMED 1943-08-17 12:00:00 NR 24.1879 144.093 main 1260 1187 __________P___ -1 24.1879 144.093 4 14 339
1943229N24144 1943 54 WP MM NOT_NAMED 1943-08-17 15:00:00 NR 24.8204 143.836 main 1187 1131 __________P___ -1 24.8204 143.836 4 12 342
1943229N24144 1943 54 WP MM NOT_NAMED 1943-08-17 18:00:00 NR 25.3426 143.687 main 1131 1089 __________P___ -1 25.3426 143.687 4 9 352
1943229N24144 1943 54 WP MM NOT_NAMED 1943-08-17 21:00:00 NR 25.7000 143.700 main 1089 1074 __________O___ -1 25.7000 143.700 4 6 21
1943229N24144 1943 54 WP MM NOT_NAMED 1943-08-18 00:00:00 NR 25.8584 143.912 main 1074 1074 __________P___ -1 25.8584 143.912 4 5 72
1943229N24144 1943 54 WP MM NOT_NAMED 1943-08-18 03:00:00 NR 25.8656 144.277 main 1088 1088 __________P___ -1 25.8656 144.277 4 7 95
1943229N24144 1943 54 WP MM NOT_NAMED 1943-08-18 06:00:00 NR 25.7899 144.729 main 1114 1114 __________P___ -1 25.7899 144.729 4 8 101
1943229N24144 1943 54 WP MM NOT_NAMED 1943-08-18 09:00:00 NR 25.7000 145.200 main 1144 1144 __________O___ -1 25.7000 145.200 4 8 98
1943229N24144 1943 54 WP MM NOT_NAMED 1943-08-18 12:00:00 NR 25.6839 145.613 main 1162 1162 __________P___ -1 25.6839 145.613 4 7 92
1943229N24144 1943 54 WP MM NOT_NAMED 1943-08-18 15:00:00 NR 25.6702 146.030 main 1180 1180 __________P___ -1 25.6702 146.030 4 7 91
1943229N24144 1943 54 WP MM NOT_NAMED 1943-08-18 18:00:00 NR 25.6714 146.432 main 1200 1200 __________P___ -1 25.6714 146.432 4 7 88
1943229N24144 1943 54 WP MM NOT_NAMED 1943-08-18 21:00:00 NR 25.7000 146.800 main 1220 1220 __________O___ -1 25.7000 146.800 4 6 81
1943229N24144 1943 54 WP MM NOT_NAMED 1943-08-19 00:00:00 NR 25.7668 147.127 main 1226 1226 __________P___ -1 25.7668 147.127 4 6 74
1943229N24144 1943 54 WP MM NOT_NAMED 1943-08-19 03:00:00 NR 25.8621 147.417 main 1233 1233 __________P___ -1 25.8621 147.417 4 5 67
1943229N24144 1943 54 WP MM NOT_NAMED 1943-08-19 06:00:00 NR 25.9763 147.674 main 1240 1236 __________P___ -1 25.9763 147.674 4 5 61
1943229N24144 1943 54 WP MM NOT_NAMED 1943-08-19 09:00:00 NR 26.1000 147.900 main 1241 1241 __________O___ -1 26.1000 147.900 4 5 70
1943229N24144 1943 54 WP MM NOT_NAMED 1943-08-19 12:00:00 NR 26.1365 148.152 main 1258 1249 __________P___ -1 26.1365 148.152 4 4 78
1943229N24144 1943 54 WP MM NOT_NAMED 1943-08-19 15:00:00 NR 26.1924 148.369 main 1260 1257 __________P___ -1 26.1924 148.369 4 4 60
1943229N24144 1943 54 WP MM NOT_NAMED 1943-08-19 18:00:00 NR 26.3271 148.527 main 1257 1236 __________P___ -1 26.3271 148.527 4 5 27
1943229N24144 1943 54 WP MM NOT_NAMED 1943-08-19 21:00:00 NR 26.6000 148.600 main 1236 1200 __________O___ -1 26.6000 148.600 4 7 4
1943229N24144 1943 54 WP MM NOT_NAMED 1943-08-20 00:00:00 NR 27.0689 148.589 main 1192 1142 __________P___ -1 27.0689 148.589 4 11 355
1943229N24144 1943 54 WP MM NOT_NAMED 1943-08-20 03:00:00 NR 27.6773 148.492 main 1134 1070 __________P___ -1 27.6773 148.492 4 13 350
1943229N24144 1943 54 WP MM NOT_NAMED 1943-08-20 06:00:00 NR 28.3721 148.323 main 1062 992 __________P___ -1 28.3721 148.323 4 15 346
1943229N24144 1943 54 WP MM NOT_NAMED 1943-08-20 09:00:00 NR 29.1000 148.100 main 992 924 __________O___ -1 29.1000 148.100 4 15 344
1943229N24144 1943 54 WP MM NOT_NAMED 1943-08-20 12:00:00 NR 29.8435 147.852 main 924 842 __________P___ -1 29.8435 147.852 4 16 343
1943229N24144 1943 54 WP MM NOT_NAMED 1943-08-20 15:00:00 NR 30.5977 147.556 main 842 761 __________P___ -1 30.5977 147.556 4 16 340
1943229N24144 1943 54 WP MM NOT_NAMED 1943-08-20 18:00:00 NR 31.3030 147.231 main 761 696 __________P___ -1 31.3030 147.231 4 14 337
1943229N24144 1943 54 WP MM NOT_NAMED 1943-08-20 21:00:00 NR 31.9000 146.900 main 696 654 __________O___ -1 31.9000 146.900 4 11 333
1943229N24144 1943 54 WP MM NOT_NAMED 1943-08-21 00:00:00 NR 32.3015 146.641 main 646 611 __________P___ -1 32.3015 146.641 4 8 328
1943229N24144 1943 54 WP MM NOT_NAMED 1943-08-21 03:00:00 NR 32.5955 146.377 main 611 576 __________P___ -1 32.5955 146.377 4 7 319
1943229N24144 1943 54 WP MM NOT_NAMED 1943-08-21 06:00:00 NR 32.8418 146.075 main 576 526 __________P___ -1 32.8418 146.075 4 8 312
1943229N24144 1943 54 WP MM NOT_NAMED 1943-08-21 09:00:00 NR 33.1000 145.700 main 526 469 __________O___ -1 33.1000 145.700 4 10 307
1943229N24144 1943 54 WP MM NOT_NAMED 1943-08-21 12:00:00 NR 33.4192 145.145 main 461 404 __________P___ -1 33.4192 145.145 4 12 304
1943229N24144 1943 54 WP MM NOT_NAMED 1943-08-21 15:00:00 NR 33.7634 144.522 main 390 326 __________P___ -1 33.7634 144.522 4 13 306
1943229N24144 1943 54 WP MM NOT_NAMED 1943-08-21 18:00:00 NR 34.1505 143.913 main 319 257 __________P___ -1 34.1505 143.913 4 13 312
1943229N24144 1943 54 WP MM NOT_NAMED 1943-08-21 21:00:00 NR 34.6000 143.400 main 257 209 __________O___ -1 34.6000 143.400 4 12 324
1943229N24144 1943 54 WP MM NOT_NAMED 1943-08-22 00:00:00 NR 35.1257 143.063 main 209 171 __________P___ -1 35.1257 143.063 4 12 337
1943229N24144 1943 54 WP MM NOT_NAMED 1943-08-22 03:00:00 NR 35.7159 142.834 main 171 167 __________P___ -1 35.7159 142.834 4 13 346
1943229N24144 1943 54 WP MM NOT_NAMED 1943-08-22 06:00:00 NR 36.3482 142.688 main 170 141 __________P___ -1 36.3482 142.688 4 13 352
1943229N24144 1943 54 WP MM NOT_NAMED 1943-08-22 09:00:00 NR 37.0000 142.600 main 141 117 __________O___ -1 37.0000 142.600 4 13 354
1943229N24144 1943 54 WP MM NOT_NAMED 1943-08-22 12:00:00 NR 37.6759 142.515 main 109 87 __________P___ -1 37.6759 142.515 4 14 356
1943229N24144 1943 54 WP MM NOT_NAMED 1943-08-22 15:00:00 NR 38.3597 142.481 main 84 56 __________P___ -1 38.3597 142.481 4 13 0
1943229N24144 1943 54 WP MM NOT_NAMED 1943-08-22 18:00:00 NR 39.0136 142.481 main 56 34 __________P___ -1 39.0136 142.481 4 12 1
1943229N24144 1943 54 WP MM NOT_NAMED 1943-08-22 21:00:00 NR 39.6000 142.500 main 35 35 __________O___ -1 39.6000 142.500 4 11 0
1943229N24144 1943 54 WP MM NOT_NAMED 1943-08-23 00:00:00 NR 40.0636 142.502 main 52 52 __________P___ -1 40.0636 142.502 4 9 0
1943229N24144 1943 54 WP MM NOT_NAMED 1943-08-23 03:00:00 NR 40.4598 142.520 main 63 63 __________P___ -1 40.4598 142.520 4 8 2
1943229N24144 1943 54 WP MM NOT_NAMED 1943-08-23 06:00:00 NR 40.8261 142.553 main 87 87 __________P___ -1 40.8261 142.553 4 7 4
1943229N24144 1943 54 WP MM NOT_NAMED 1943-08-23 09:00:00 NR 41.2000 142.600 main 92 66 __________O___ -1 41.2000 142.600 4 8 355
1943229N24144 1943 54 WP MM NOT_NAMED 1943-08-23 12:00:00 NR 41.6015 142.459 main 66 37 __________P___ -1 41.6015 142.459 4 8 348
1943229N24144 1943 54 WP MM NOT_NAMED 1943-08-23 15:00:00 NR 42.0219 142.361 main 37 0 __________P___ -1 42.0219 142.361 4 9 359
1943229N24144 1943 54 WP MM NOT_NAMED 1943-08-23 18:00:00 NR 42.4815 142.456 main 0 0 __________P___ -1 42.4815 142.456 4 11 22
1943229N24144 1943 54 WP MM NOT_NAMED 1943-08-23 21:00:00 NR 43.0000 142.900 main 0 0 __________O___ -1 43.0000 142.900 4 15 44
1943229N24144 1943 54 WP MM NOT_NAMED 1943-08-24 00:00:00 NR 43.5962 143.906 main 0 0 __________P___ -1 43.5962 143.906 4 21 54
1943229N24144 1943 54 WP MM NOT_NAMED 1943-08-24 03:00:00 NR 44.2337 145.286 main 0 0 __________P___ -1 44.2337 145.286 4 25 59
1943229N24144 1943 54 WP MM NOT_NAMED 1943-08-24 06:00:00 NR 44.8774 146.875 main 26 0 __________P___ -1 44.8774 146.875 4 26 61
1943229N24144 1943 54 WP MM NOT_NAMED 1943-08-24 09:00:00 NR 45.5000 148.500 main 13 7 __________O___ -1 45.5000 148.500 4 25 61
1943229N24144 1943 54 WP MM NOT_NAMED 1943-08-24 12:00:00 NR 46.0877 150.016 main 11 7 __________P___ -1 46.0877 150.016 4 23 61
1943229N24144 1943 54 WP MM NOT_NAMED 1943-08-24 15:00:00 NR 46.6460 151.426 main 94 94 __________P___ -1 46.6460 151.426 4 22 60
1943229N24144 1943 54 WP MM NOT_NAMED 1943-08-24 18:00:00 NR 47.1819 152.773 main 219 219 __________P___ -1 47.1819 152.773 4 21 60
1943229N24144 1943 54 WP MM NOT_NAMED 1943-08-24 21:00:00 NR 47.7000 154.100 main 272 __________O___ -1 47.7000 154.100 4 21 60

Digital Typhoon Data and Search

About IBTrACS Database

This database is a web-friendly format of International Best Track Archive for Climate Stewardship (IBTrACS), a global best track data archive curated by NOAA dating back to 1842.

Updated: 2021-10-27